sensor_id;sensor_type;location;lat;lon;timestamp;P1;durP1;ratioP1;P2;durP2;ratioP2
34573;SDS011;20809;49.594;8.734;2022-10-16T00:00:33;4.90;;;3.13;;
34573;SDS011;20809;49.594;8.734;2022-10-16T00:03:35;4.57;;;2.38;;
34573;SDS011;20809;49.594;8.734;2022-10-16T00:06:36;3.67;;;2.40;;
34573;SDS011;20809;49.594;8.734;2022-10-16T00:09:36;4.63;;;2.92;;
34573;SDS011;20809;49.594;8.734;2022-10-16T00:12:37;3.60;;;3.08;;
34573;SDS011;20809;49.594;8.734;2022-10-16T00:15:38;4.03;;;3.00;;
34573;SDS011;20809;49.594;8.734;2022-10-16T00:18:39;3.35;;;2.70;;
34573;SDS011;20809;49.594;8.734;2022-10-16T00:24:41;2.53;;;2.27;;
34573;SDS011;20809;49.594;8.734;2022-10-16T00:27:41;2.40;;;2.20;;
34573;SDS011;20809;49.594;8.734;2022-10-16T00:30:42;5.18;;;2.75;;
34573;SDS011;20809;49.594;8.734;2022-10-16T00:33:43;4.33;;;2.50;;
34573;SDS011;20809;49.594;8.734;2022-10-16T00:39:45;2.60;;;2.40;;
34573;SDS011;20809;49.594;8.734;2022-10-16T00:42:45;2.70;;;2.50;;
34573;SDS011;20809;49.594;8.734;2022-10-16T00:45:46;3.17;;;1.95;;
34573;SDS011;20809;49.594;8.734;2022-10-16T00:48:48;2.37;;;2.10;;
34573;SDS011;20809;49.594;8.734;2022-10-16T00:52:05;5.10;;;2.28;;
34573;SDS011;20809;49.594;8.734;2022-10-16T00:59:22;2.78;;;2.33;;
34573;SDS011;20809;49.594;8.734;2022-10-16T01:02:26;5.35;;;2.45;;
34573;SDS011;20809;49.594;8.734;2022-10-16T01:05:39;4.18;;;2.60;;
34573;SDS011;20809;49.594;8.734;2022-10-16T01:15:55;5.40;;;2.90;;
34573;SDS011;20809;49.594;8.734;2022-10-16T01:19:10;4.78;;;2.10;;
34573;SDS011;20809;49.594;8.734;2022-10-16T01:22:15;3.28;;;1.98;;
34573;SDS011;20809;49.594;8.734;2022-10-16T01:25:25;2.20;;;2.00;;
34573;SDS011;20809;49.594;8.734;2022-10-16T01:28:47;3.20;;;1.88;;
34573;SDS011;20809;49.594;8.734;2022-10-16T01:31:56;5.68;;;2.13;;
34573;SDS011;20809;49.594;8.734;2022-10-16T01:38:26;2.10;;;1.60;;
34573;SDS011;20809;49.594;8.734;2022-10-16T01:41:34;2.25;;;1.50;;
34573;SDS011;20809;49.594;8.734;2022-10-16T01:44:39;6.97;;;2.13;;
34573;SDS011;20809;49.594;8.734;2022-10-16T01:47:42;1.60;;;1.40;;
34573;SDS011;20809;49.594;8.734;2022-10-16T01:50:44;2.25;;;1.45;;
34573;SDS011;20809;49.594;8.734;2022-10-16T01:53:54;2.88;;;1.42;;
34573;SDS011;20809;49.594;8.734;2022-10-16T01:56:58;1.60;;;1.50;;
34573;SDS011;20809;49.594;8.734;2022-10-16T02:00:01;1.85;;;1.25;;
34573;SDS011;20809;49.594;8.734;2022-10-16T02:03:06;6.45;;;1.30;;
34573;SDS011;20809;49.594;8.734;2022-10-16T02:06:09;1.85;;;1.20;;
34573;SDS011;20809;49.594;8.734;2022-10-16T02:09:10;1.75;;;1.38;;
34573;SDS011;20809;49.594;8.734;2022-10-16T02:12:23;3.88;;;1.33;;
34573;SDS011;20809;49.594;8.734;2022-10-16T02:15:31;4.47;;;1.65;;
34573;SDS011;20809;49.594;8.734;2022-10-16T02:18:31;1.30;;;1.20;;
34573;SDS011;20809;49.594;8.734;2022-10-16T02:21:39;1.30;;;0.90;;
34573;SDS011;20809;49.594;8.734;2022-10-16T02:27:53;2.75;;;1.00;;
34573;SDS011;20809;49.594;8.734;2022-10-16T02:31:00;1.95;;;1.40;;
34573;SDS011;20809;49.594;8.734;2022-10-16T02:34:04;1.35;;;0.98;;
34573;SDS011;20809;49.594;8.734;2022-10-16T02:37:06;2.35;;;0.93;;
34573;SDS011;20809;49.594;8.734;2022-10-16T02:40:08;1.17;;;1.00;;
34573;SDS011;20809;49.594;8.734;2022-10-16T02:43:10;1.00;;;0.90;;
34573;SDS011;20809;49.594;8.734;2022-10-16T02:46:11;2.35;;;1.08;;
34573;SDS011;20809;49.594;8.734;2022-10-16T02:49:12;1.10;;;1.00;;
34573;SDS011;20809;49.594;8.734;2022-10-16T02:52:12;1.48;;;1.20;;
34573;SDS011;20809;49.594;8.734;2022-10-16T02:55:13;4.53;;;0.95;;
34573;SDS011;20809;49.594;8.734;2022-10-16T02:58:13;2.97;;;1.00;;
34573;SDS011;20809;49.594;8.734;2022-10-16T03:01:14;1.83;;;1.00;;
34573;SDS011;20809;49.594;8.734;2022-10-16T03:04:16;2.67;;;1.00;;
34573;SDS011;20809;49.594;8.734;2022-10-16T03:07:17;0.85;;;0.70;;
34573;SDS011;20809;49.594;8.734;2022-10-16T03:10:18;1.60;;;1.00;;
34573;SDS011;20809;49.594;8.734;2022-10-16T03:13:18;3.80;;;0.90;;
34573;SDS011;20809;49.594;8.734;2022-10-16T03:16:20;3.47;;;1.33;;
34573;SDS011;20809;49.594;8.734;2022-10-16T03:19:21;1.40;;;0.90;;
34573;SDS011;20809;49.594;8.734;2022-10-16T03:22:21;3.23;;;0.97;;
34573;SDS011;20809;49.594;8.734;2022-10-16T03:25:22;2.50;;;0.70;;
34573;SDS011;20809;49.594;8.734;2022-10-16T03:28:23;1.08;;;0.98;;
34573;SDS011;20809;49.594;8.734;2022-10-16T03:31:23;1.10;;;1.00;;
34573;SDS011;20809;49.594;8.734;2022-10-16T03:34:24;5.78;;;1.13;;
34573;SDS011;20809;49.594;8.734;2022-10-16T03:37:25;1.35;;;0.88;;
34573;SDS011;20809;49.594;8.734;2022-10-16T03:40:26;0.82;;;0.82;;
34573;SDS011;20809;49.594;8.734;2022-10-16T03:43:27;2.83;;;1.45;;
34573;SDS011;20809;49.594;8.734;2022-10-16T03:46:27;2.20;;;1.60;;
34573;SDS011;20809;49.594;8.734;2022-10-16T03:49:29;5.30;;;1.55;;
34573;SDS011;20809;49.594;8.734;2022-10-16T03:52:30;4.53;;;1.60;;
34573;SDS011;20809;49.594;8.734;2022-10-16T03:55:31;2.13;;;1.92;;
34573;SDS011;20809;49.594;8.734;2022-10-16T03:58:32;2.60;;;1.85;;
34573;SDS011;20809;49.594;8.734;2022-10-16T04:01:33;1.77;;;1.67;;
34573;SDS011;20809;49.594;8.734;2022-10-16T04:04:33;5.57;;;1.47;;
34573;SDS011;20809;49.594;8.734;2022-10-16T04:07:34;2.13;;;1.80;;
34573;SDS011;20809;49.594;8.734;2022-10-16T04:10:35;2.92;;;2.08;;
34573;SDS011;20809;49.594;8.734;2022-10-16T04:13:36;2.37;;;1.87;;
34573;SDS011;20809;49.594;8.734;2022-10-16T04:16:36;2.97;;;1.92;;
34573;SDS011;20809;49.594;8.734;2022-10-16T04:19:37;2.03;;;1.38;;
34573;SDS011;20809;49.594;8.734;2022-10-16T04:22:38;1.70;;;1.35;;
34573;SDS011;20809;49.594;8.734;2022-10-16T04:25:39;2.90;;;1.30;;
34573;SDS011;20809;49.594;8.734;2022-10-16T04:28:39;1.98;;;1.48;;
34573;SDS011;20809;49.594;8.734;2022-10-16T04:31:40;1.10;;;1.00;;
34573;SDS011;20809;49.594;8.734;2022-10-16T04:34:41;2.47;;;1.25;;
34573;SDS011;20809;49.594;8.734;2022-10-16T04:37:41;2.85;;;1.50;;
34573;SDS011;20809;49.594;8.734;2022-10-16T04:40:42;3.33;;;1.63;;
34573;SDS011;20809;49.594;8.734;2022-10-16T04:43:43;1.33;;;1.23;;
34573;SDS011;20809;49.594;8.734;2022-10-16T04:46:43;3.28;;;1.20;;
34573;SDS011;20809;49.594;8.734;2022-10-16T04:49:44;3.38;;;1.10;;
34573;SDS011;20809;49.594;8.734;2022-10-16T04:52:45;5.60;;;2.30;;
34573;SDS011;20809;49.594;8.734;2022-10-16T04:55:45;2.23;;;2.03;;
34573;SDS011;20809;49.594;8.734;2022-10-16T04:58:46;2.38;;;1.85;;
34573;SDS011;20809;49.594;8.734;2022-10-16T05:01:47;3.30;;;1.67;;
34573;SDS011;20809;49.594;8.734;2022-10-16T05:07:49;5.73;;;1.80;;
34573;SDS011;20809;49.594;8.734;2022-10-16T05:10:49;9.63;;;1.50;;
34573;SDS011;20809;49.594;8.734;2022-10-16T05:13:50;2.20;;;1.73;;
34573;SDS011;20809;49.594;8.734;2022-10-16T05:16:51;2.27;;;1.90;;
34573;SDS011;20809;49.594;8.734;2022-10-16T05:19:51;2.90;;;1.90;;
34573;SDS011;20809;49.594;8.734;2022-10-16T05:22:52;3.65;;;2.20;;
34573;SDS011;20809;49.594;8.734;2022-10-16T05:25:53;6.22;;;2.20;;
34573;SDS011;20809;49.594;8.734;2022-10-16T05:28:58;3.42;;;2.05;;
34573;SDS011;20809;49.594;8.734;2022-10-16T05:31:59;2.42;;;2.08;;
34573;SDS011;20809;49.594;8.734;2022-10-16T05:34:59;2.70;;;2.20;;
34573;SDS011;20809;49.594;8.734;2022-10-16T05:38:00;3.85;;;2.30;;
34573;SDS011;20809;49.594;8.734;2022-10-16T05:41:01;6.47;;;3.00;;
34573;SDS011;20809;49.594;8.734;2022-10-16T05:44:04;18.67;;;8.32;;
34573;SDS011;20809;49.594;8.734;2022-10-16T05:47:05;4.57;;;2.90;;
34573;SDS011;20809;49.594;8.734;2022-10-16T05:50:06;3.30;;;3.03;;
34573;SDS011;20809;49.594;8.734;2022-10-16T05:53:07;6.38;;;2.60;;
34573;SDS011;20809;49.594;8.734;2022-10-16T05:56:09;7.10;;;3.38;;
34573;SDS011;20809;49.594;8.734;2022-10-16T05:59:11;6.15;;;2.15;;
34573;SDS011;20809;49.594;8.734;2022-10-16T06:02:12;3.30;;;1.80;;
34573;SDS011;20809;49.594;8.734;2022-10-16T06:05:14;3.90;;;1.88;;
34573;SDS011;20809;49.594;8.734;2022-10-16T06:08:14;5.13;;;1.70;;
34573;SDS011;20809;49.594;8.734;2022-10-16T06:11:17;4.63;;;1.75;;
34573;SDS011;20809;49.594;8.734;2022-10-16T06:14:22;4.80;;;2.10;;
34573;SDS011;20809;49.594;8.734;2022-10-16T06:17:23;3.50;;;3.20;;
34573;SDS011;20809;49.594;8.734;2022-10-16T06:20:24;5.83;;;4.17;;
34573;SDS011;20809;49.594;8.734;2022-10-16T06:23:25;5.72;;;2.33;;
34573;SDS011;20809;49.594;8.734;2022-10-16T06:26:26;4.07;;;1.50;;
34573;SDS011;20809;49.594;8.734;2022-10-16T06:29:29;3.67;;;1.58;;
34573;SDS011;20809;49.594;8.734;2022-10-16T06:32:29;6.15;;;4.53;;
34573;SDS011;20809;49.594;8.734;2022-10-16T06:35:30;5.53;;;2.10;;
34573;SDS011;20809;49.594;8.734;2022-10-16T06:38:32;2.97;;;1.75;;
34573;SDS011;20809;49.594;8.734;2022-10-16T06:41:32;3.17;;;2.50;;
34573;SDS011;20809;49.594;8.734;2022-10-16T06:44:34;2.88;;;2.20;;
34573;SDS011;20809;49.594;8.734;2022-10-16T06:47:35;2.33;;;2.13;;
34573;SDS011;20809;49.594;8.734;2022-10-16T06:50:36;4.40;;;2.58;;
34573;SDS011;20809;49.594;8.734;2022-10-16T06:53:38;6.07;;;3.22;;
34573;SDS011;20809;49.594;8.734;2022-10-16T06:56:41;6.22;;;2.22;;
34573;SDS011;20809;49.594;8.734;2022-10-16T06:59:41;1.80;;;1.70;;
34573;SDS011;20809;49.594;8.734;2022-10-16T07:02:42;3.13;;;2.93;;
34573;SDS011;20809;49.594;8.734;2022-10-16T07:05:42;3.60;;;2.57;;
34573;SDS011;20809;49.594;8.734;2022-10-16T07:08:44;7.07;;;3.45;;
34573;SDS011;20809;49.594;8.734;2022-10-16T07:11:46;4.75;;;2.47;;
34573;SDS011;20809;49.594;8.734;2022-10-16T07:14:46;3.03;;;2.47;;
34573;SDS011;20809;49.594;8.734;2022-10-16T07:17:47;4.70;;;2.42;;
34573;SDS011;20809;49.594;8.734;2022-10-16T07:20:48;2.00;;;1.80;;
34573;SDS011;20809;49.594;8.734;2022-10-16T07:23:52;4.75;;;2.38;;
34573;SDS011;20809;49.594;8.734;2022-10-16T07:26:54;4.75;;;2.25;;
34573;SDS011;20809;49.594;8.734;2022-10-16T07:29:55;2.25;;;2.05;;
34573;SDS011;20809;49.594;8.734;2022-10-16T07:32:55;3.35;;;1.95;;
34573;SDS011;20809;49.594;8.734;2022-10-16T07:35:56;3.07;;;2.60;;
34573;SDS011;20809;49.594;8.734;2022-10-16T07:38:56;6.18;;;3.08;;
34573;SDS011;20809;49.594;8.734;2022-10-16T07:41:57;3.25;;;2.00;;
34573;SDS011;20809;49.594;8.734;2022-10-16T07:44:58;2.88;;;2.05;;
34573;SDS011;20809;49.594;8.734;2022-10-16T07:47:59;3.03;;;1.95;;
34573;SDS011;20809;49.594;8.734;2022-10-16T07:51:03;3.57;;;1.60;;
34573;SDS011;20809;49.594;8.734;2022-10-16T07:54:05;1.95;;;1.42;;
34573;SDS011;20809;49.594;8.734;2022-10-16T07:57:06;2.65;;;1.90;;
34573;SDS011;20809;49.594;8.734;2022-10-16T08:00:06;5.63;;;1.77;;
34573;SDS011;20809;49.594;8.734;2022-10-16T08:03:13;3.75;;;2.53;;
34573;SDS011;20809;49.594;8.734;2022-10-16T08:06:14;4.43;;;4.00;;
34573;SDS011;20809;49.594;8.734;2022-10-16T08:09:15;6.63;;;4.97;;
34573;SDS011;20809;49.594;8.734;2022-10-16T08:12:16;8.95;;;4.97;;
34573;SDS011;20809;49.594;8.734;2022-10-16T08:15:16;6.00;;;3.63;;
34573;SDS011;20809;49.594;8.734;2022-10-16T08:18:17;3.85;;;2.72;;
34573;SDS011;20809;49.594;8.734;2022-10-16T08:21:19;2.63;;;1.92;;
34573;SDS011;20809;49.594;8.734;2022-10-16T08:24:21;4.03;;;2.03;;
34573;SDS011;20809;49.594;8.734;2022-10-16T08:27:21;6.85;;;1.88;;
34573;SDS011;20809;49.594;8.734;2022-10-16T08:30:23;2.25;;;2.05;;
34573;SDS011;20809;49.594;8.734;2022-10-16T08:33:24;2.95;;;1.10;;
34573;SDS011;20809;49.594;8.734;2022-10-16T08:36:24;1.67;;;1.08;;
34573;SDS011;20809;49.594;8.734;2022-10-16T08:39:25;1.40;;;1.30;;
34573;SDS011;20809;49.594;8.734;2022-10-16T08:49:20;2.95;;;2.63;;
34573;SDS011;20809;49.594;8.734;2022-10-16T08:52:21;1.75;;;1.42;;
34573;SDS011;20809;49.594;8.734;2022-10-16T08:58:48;3.13;;;2.13;;
34573;SDS011;20809;49.594;8.734;2022-10-16T09:04:56;6.25;;;2.15;;
34573;SDS011;20809;49.594;8.734;2022-10-16T09:11:43;2.85;;;1.77;;
34573;SDS011;20809;49.594;8.734;2022-10-16T09:15:07;2.25;;;1.90;;
34573;SDS011;20809;49.594;8.734;2022-10-16T09:18:44;4.22;;;1.77;;
34573;SDS011;20809;49.594;8.734;2022-10-16T09:24:48;4.38;;;2.17;;
34573;SDS011;20809;49.594;8.734;2022-10-16T09:27:51;2.38;;;1.80;;
34573;SDS011;20809;49.594;8.734;2022-10-16T09:30:56;3.30;;;2.00;;
34573;SDS011;20809;49.594;8.734;2022-10-16T09:34:00;1.88;;;1.70;;
34573;SDS011;20809;49.594;8.734;2022-10-16T09:37:09;4.70;;;2.33;;
34573;SDS011;20809;49.594;8.734;2022-10-16T09:40:35;2.38;;;1.73;;
34573;SDS011;20809;49.594;8.734;2022-10-16T09:43:39;1.10;;;1.00;;
34573;SDS011;20809;49.594;8.734;2022-10-16T09:47:03;1.20;;;0.98;;
34573;SDS011;20809;49.594;8.734;2022-10-16T09:50:19;0.93;;;0.85;;
34573;SDS011;20809;49.594;8.734;2022-10-16T09:53:23;5.65;;;0.93;;
34573;SDS011;20809;49.594;8.734;2022-10-16T09:56:30;2.90;;;0.60;;
34573;SDS011;20809;49.594;8.734;2022-10-16T09:59:33;0.80;;;0.73;;
34573;SDS011;20809;49.594;8.734;2022-10-16T10:02:34;1.67;;;0.88;;
34573;SDS011;20809;49.594;8.734;2022-10-16T10:05:38;1.30;;;1.05;;
34573;SDS011;20809;49.594;8.734;2022-10-16T10:08:40;1.85;;;0.80;;
34573;SDS011;20809;49.594;8.734;2022-10-16T10:11:51;1.75;;;0.60;;
34573;SDS011;20809;49.594;8.734;2022-10-16T10:14:56;2.92;;;0.93;;
34573;SDS011;20809;49.594;8.734;2022-10-16T10:18:24;1.42;;;1.10;;
34573;SDS011;20809;49.594;8.734;2022-10-16T10:21:26;2.58;;;1.20;;
34573;SDS011;20809;49.594;8.734;2022-10-16T10:24:28;2.47;;;1.25;;
34573;SDS011;20809;49.594;8.734;2022-10-16T10:38:05;2.00;;;0.80;;
34573;SDS011;20809;49.594;8.734;2022-10-16T11:05:53;1.60;;;0.88;;
34573;SDS011;20809;49.594;8.734;2022-10-16T11:09:32;1.90;;;1.52;;
34573;SDS011;20809;49.594;8.734;2022-10-16T11:12:47;0.90;;;0.90;;
34573;SDS011;20809;49.594;8.734;2022-10-16T11:15:57;1.23;;;1.00;;
34573;SDS011;20809;49.594;8.734;2022-10-16T11:22:36;1.38;;;0.98;;
34573;SDS011;20809;49.594;8.734;2022-10-16T11:25:42;1.80;;;0.63;;
34573;SDS011;20809;49.594;8.734;2022-10-16T11:28:48;1.40;;;0.90;;
34573;SDS011;20809;49.594;8.734;2022-10-16T11:31:57;1.10;;;1.00;;
34573;SDS011;20809;49.594;8.734;2022-10-16T11:35:11;2.38;;;1.08;;
34573;SDS011;20809;49.594;8.734;2022-10-16T11:38:36;9.98;;;1.13;;
34573;SDS011;20809;49.594;8.734;2022-10-16T11:41:59;3.85;;;1.10;;
34573;SDS011;20809;49.594;8.734;2022-10-16T11:48:35;4.28;;;1.50;;
34573;SDS011;20809;49.594;8.734;2022-10-16T11:51:48;1.80;;;0.88;;
34573;SDS011;20809;49.594;8.734;2022-10-16T12:01:58;4.22;;;1.17;;
34573;SDS011;20809;49.594;8.734;2022-10-16T12:05:12;1.85;;;1.00;;
34573;SDS011;20809;49.594;8.734;2022-10-16T12:08:34;3.00;;;1.10;;
34573;SDS011;20809;49.594;8.734;2022-10-16T12:11:37;1.75;;;1.33;;
34573;SDS011;20809;49.594;8.734;2022-10-16T12:14:39;1.65;;;1.20;;
34573;SDS011;20809;49.594;8.734;2022-10-16T12:17:40;0.90;;;0.90;;
34573;SDS011;20809;49.594;8.734;2022-10-16T12:20:41;2.58;;;0.90;;
34573;SDS011;20809;49.594;8.734;2022-10-16T12:26:51;1.50;;;1.23;;
34573;SDS011;20809;49.594;8.734;2022-10-16T12:29:57;3.20;;;1.25;;
34573;SDS011;20809;49.594;8.734;2022-10-16T12:36:29;3.15;;;1.38;;
34573;SDS011;20809;49.594;8.734;2022-10-16T12:39:34;4.07;;;1.70;;
34573;SDS011;20809;49.594;8.734;2022-10-16T12:42:36;1.73;;;1.63;;
34573;SDS011;20809;49.594;8.734;2022-10-16T12:45:37;2.47;;;1.08;;
34573;SDS011;20809;49.594;8.734;2022-10-16T12:48:39;1.38;;;1.27;;
34573;SDS011;20809;49.594;8.734;2022-10-16T12:51:42;2.53;;;1.55;;
34573;SDS011;20809;49.594;8.734;2022-10-16T12:54:43;2.45;;;1.10;;
34573;SDS011;20809;49.594;8.734;2022-10-16T13:00:57;1.40;;;1.10;;
34573;SDS011;20809;49.594;8.734;2022-10-16T13:17:10;1.30;;;1.20;;
34573;SDS011;20809;49.594;8.734;2022-10-16T13:30:42;4.63;;;1.27;;
34573;SDS011;20809;49.594;8.734;2022-10-16T13:33:48;2.70;;;0.82;;
34573;SDS011;20809;49.594;8.734;2022-10-16T13:36:55;1.20;;;1.10;;
34573;SDS011;20809;49.594;8.734;2022-10-16T13:40:09;1.45;;;1.08;;
34573;SDS011;20809;49.594;8.734;2022-10-16T13:43:31;2.75;;;1.17;;
34573;SDS011;20809;49.594;8.734;2022-10-16T13:46:44;2.15;;;1.25;;
34573;SDS011;20809;49.594;8.734;2022-10-16T13:49:45;1.40;;;1.30;;
34573;SDS011;20809;49.594;8.734;2022-10-16T13:52:46;6.30;;;1.58;;
34573;SDS011;20809;49.594;8.734;2022-10-16T13:55:47;3.90;;;1.33;;
34573;SDS011;20809;49.594;8.734;2022-10-16T13:58:58;0.88;;;0.88;;
34573;SDS011;20809;49.594;8.734;2022-10-16T14:01:59;2.30;;;1.10;;
34573;SDS011;20809;49.594;8.734;2022-10-16T14:05:09;1.13;;;1.02;;
34573;SDS011;20809;49.594;8.734;2022-10-16T14:08:10;2.70;;;1.35;;
34573;SDS011;20809;49.594;8.734;2022-10-16T14:11:12;3.70;;;2.95;;
34573;SDS011;20809;49.594;8.734;2022-10-16T14:14:13;2.15;;;1.08;;
34573;SDS011;20809;49.594;8.734;2022-10-16T14:17:15;3.20;;;1.10;;
34573;SDS011;20809;49.594;8.734;2022-10-16T14:20:20;1.85;;;1.60;;
34573;SDS011;20809;49.594;8.734;2022-10-16T14:23:30;1.35;;;1.20;;
34573;SDS011;20809;49.594;8.734;2022-10-16T14:26:40;1.40;;;1.27;;
34573;SDS011;20809;49.594;8.734;2022-10-16T14:29:44;1.30;;;1.20;;
34573;SDS011;20809;49.594;8.734;2022-10-16T14:32:58;4.88;;;1.15;;
34573;SDS011;20809;49.594;8.734;2022-10-16T14:36:05;3.65;;;1.20;;
34573;SDS011;20809;49.594;8.734;2022-10-16T14:39:21;2.13;;;1.35;;
34573;SDS011;20809;49.594;8.734;2022-10-16T14:42:23;1.20;;;1.10;;
34573;SDS011;20809;49.594;8.734;2022-10-16T14:45:27;1.67;;;1.58;;
34573;SDS011;20809;49.594;8.734;2022-10-16T14:48:30;1.60;;;1.50;;
34573;SDS011;20809;49.594;8.734;2022-10-16T14:51:31;1.65;;;1.30;;
34573;SDS011;20809;49.594;8.734;2022-10-16T14:54:31;2.38;;;1.90;;
34573;SDS011;20809;49.594;8.734;2022-10-16T14:57:32;1.63;;;1.50;;
34573;SDS011;20809;49.594;8.734;2022-10-16T15:00:36;2.85;;;1.92;;
34573;SDS011;20809;49.594;8.734;2022-10-16T15:03:37;2.47;;;1.45;;
34573;SDS011;20809;49.594;8.734;2022-10-16T15:06:38;1.48;;;1.17;;
34573;SDS011;20809;49.594;8.734;2022-10-16T15:09:39;3.05;;;1.08;;
34573;SDS011;20809;49.594;8.734;2022-10-16T15:12:39;6.10;;;3.65;;
34573;SDS011;20809;49.594;8.734;2022-10-16T15:15:44;16.17;;;7.55;;
34573;SDS011;20809;49.594;8.734;2022-10-16T15:18:46;7.85;;;4.85;;
34573;SDS011;20809;49.594;8.734;2022-10-16T15:21:47;2.45;;;2.25;;
34573;SDS011;20809;49.594;8.734;2022-10-16T15:24:49;7.40;;;2.85;;
34573;SDS011;20809;49.594;8.734;2022-10-16T15:27:49;2.40;;;1.50;;
34573;SDS011;20809;49.594;8.734;2022-10-16T15:30:51;2.63;;;1.60;;
34573;SDS011;20809;49.594;8.734;2022-10-16T15:33:53;1.70;;;1.35;;
34573;SDS011;20809;49.594;8.734;2022-10-16T15:36:58;1.55;;;1.45;;
34573;SDS011;20809;49.594;8.734;2022-10-16T15:40:02;3.88;;;2.22;;
34573;SDS011;20809;49.594;8.734;2022-10-16T15:43:03;2.30;;;1.65;;
34573;SDS011;20809;49.594;8.734;2022-10-16T15:46:05;1.65;;;1.35;;
34573;SDS011;20809;49.594;8.734;2022-10-16T15:49:08;1.63;;;1.52;;
34573;SDS011;20809;49.594;8.734;2022-10-16T15:52:10;1.73;;;1.50;;
34573;SDS011;20809;49.594;8.734;2022-10-16T15:55:11;1.80;;;1.65;;
34573;SDS011;20809;49.594;8.734;2022-10-16T15:58:14;2.55;;;1.77;;
34573;SDS011;20809;49.594;8.734;2022-10-16T16:01:15;1.80;;;1.70;;
34573;SDS011;20809;49.594;8.734;2022-10-16T16:04:16;2.35;;;2.15;;
34573;SDS011;20809;49.594;8.734;2022-10-16T16:07:18;3.90;;;1.80;;
34573;SDS011;20809;49.594;8.734;2022-10-16T16:10:19;2.15;;;1.50;;
34573;SDS011;20809;49.594;8.734;2022-10-16T16:13:21;1.95;;;1.27;;
34573;SDS011;20809;49.594;8.734;2022-10-16T16:16:24;4.47;;;1.52;;
34573;SDS011;20809;49.594;8.734;2022-10-16T16:22:25;2.10;;;1.53;;
34573;SDS011;20809;49.594;8.734;2022-10-16T16:28:27;1.90;;;1.47;;
34573;SDS011;20809;49.594;8.734;2022-10-16T16:31:29;3.03;;;1.95;;
34573;SDS011;20809;49.594;8.734;2022-10-16T16:34:31;3.28;;;2.00;;
34573;SDS011;20809;49.594;8.734;2022-10-16T16:37:32;1.90;;;1.80;;
34573;SDS011;20809;49.594;8.734;2022-10-16T16:40:34;5.55;;;1.90;;
34573;SDS011;20809;49.594;8.734;2022-10-16T16:43:35;2.00;;;1.80;;
34573;SDS011;20809;49.594;8.734;2022-10-16T16:46:35;2.58;;;2.22;;
34573;SDS011;20809;49.594;8.734;2022-10-16T16:49:36;3.72;;;2.30;;
34573;SDS011;20809;49.594;8.734;2022-10-16T16:52:37;4.95;;;2.88;;
34573;SDS011;20809;49.594;8.734;2022-10-16T16:55:38;3.65;;;2.90;;
34573;SDS011;20809;49.594;8.734;2022-10-16T16:58:39;3.20;;;2.75;;
34573;SDS011;20809;49.594;8.734;2022-10-16T17:04:41;9.83;;;6.00;;
34573;SDS011;20809;49.594;8.734;2022-10-16T17:07:41;8.60;;;4.20;;
34573;SDS011;20809;49.594;8.734;2022-10-16T17:10:43;6.57;;;3.40;;
34573;SDS011;20809;49.594;8.734;2022-10-16T17:16:45;7.03;;;4.28;;
34573;SDS011;20809;49.594;8.734;2022-10-16T17:19:49;5.32;;;3.55;;
34573;SDS011;20809;49.594;8.734;2022-10-16T17:22:50;6.15;;;3.58;;
34573;SDS011;20809;49.594;8.734;2022-10-16T17:25:51;7.00;;;4.15;;
34573;SDS011;20809;49.594;8.734;2022-10-16T17:28:53;6.32;;;3.75;;
34573;SDS011;20809;49.594;8.734;2022-10-16T17:31:55;5.43;;;3.92;;
34573;SDS011;20809;49.594;8.734;2022-10-16T17:34:58;9.48;;;4.28;;
34573;SDS011;20809;49.594;8.734;2022-10-16T17:37:58;5.00;;;4.40;;
34573;SDS011;20809;49.594;8.734;2022-10-16T17:41:09;6.00;;;3.73;;
34573;SDS011;20809;49.594;8.734;2022-10-16T17:44:12;4.68;;;2.97;;
34573;SDS011;20809;49.594;8.734;2022-10-16T17:47:18;7.97;;;4.07;;
34573;SDS011;20809;49.594;8.734;2022-10-16T17:50:20;7.65;;;3.03;;
34573;SDS011;20809;49.594;8.734;2022-10-16T17:53:21;9.80;;;3.20;;
34573;SDS011;20809;49.594;8.734;2022-10-16T17:56:24;6.75;;;3.95;;
34573;SDS011;20809;49.594;8.734;2022-10-16T17:59:26;12.18;;;5.20;;
34573;SDS011;20809;49.594;8.734;2022-10-16T18:05:28;13.23;;;5.65;;
34573;SDS011;20809;49.594;8.734;2022-10-16T18:08:29;17.80;;;5.53;;
34573;SDS011;20809;49.594;8.734;2022-10-16T18:11:30;8.25;;;4.57;;
34573;SDS011;20809;49.594;8.734;2022-10-16T18:14:31;8.85;;;4.55;;
34573;SDS011;20809;49.594;8.734;2022-10-16T18:17:33;8.60;;;5.03;;
34573;SDS011;20809;49.594;8.734;2022-10-16T18:20:37;8.57;;;5.28;;
34573;SDS011;20809;49.594;8.734;2022-10-16T18:23:38;5.82;;;5.13;;
34573;SDS011;20809;49.594;8.734;2022-10-16T18:26:40;15.00;;;5.55;;
34573;SDS011;20809;49.594;8.734;2022-10-16T18:29:41;9.23;;;7.05;;
34573;SDS011;20809;49.594;8.734;2022-10-16T18:32:41;7.50;;;5.83;;
34573;SDS011;20809;49.594;8.734;2022-10-16T18:35:42;18.53;;;6.87;;
34573;SDS011;20809;49.594;8.734;2022-10-16T18:38:43;10.77;;;6.22;;
34573;SDS011;20809;49.594;8.734;2022-10-16T18:41:43;11.63;;;6.40;;
34573;SDS011;20809;49.594;8.734;2022-10-16T18:44:44;11.70;;;7.80;;
34573;SDS011;20809;49.594;8.734;2022-10-16T18:47:45;17.15;;;8.40;;
34573;SDS011;20809;49.594;8.734;2022-10-16T18:50:47;14.05;;;8.05;;
34573;SDS011;20809;49.594;8.734;2022-10-16T18:53:50;11.55;;;7.13;;
34573;SDS011;20809;49.594;8.734;2022-10-16T18:56:52;13.32;;;7.40;;
34573;SDS011;20809;49.594;8.734;2022-10-16T18:59:53;7.47;;;6.53;;
34573;SDS011;20809;49.594;8.734;2022-10-16T19:02:54;9.32;;;6.07;;
34573;SDS011;20809;49.594;8.734;2022-10-16T19:05:58;8.10;;;5.85;;
34573;SDS011;20809;49.594;8.734;2022-10-16T19:09:22;14.93;;;6.47;;
34573;SDS011;20809;49.594;8.734;2022-10-16T19:12:24;8.15;;;6.90;;
34573;SDS011;20809;49.594;8.734;2022-10-16T19:15:25;6.80;;;6.10;;
34573;SDS011;20809;49.594;8.734;2022-10-16T19:18:26;11.70;;;6.50;;
34573;SDS011;20809;49.594;8.734;2022-10-16T19:21:28;7.00;;;5.95;;
34573;SDS011;20809;49.594;8.734;2022-10-16T19:24:30;6.22;;;5.10;;
34573;SDS011;20809;49.594;8.734;2022-10-16T19:27:31;7.43;;;6.00;;
34573;SDS011;20809;49.594;8.734;2022-10-16T19:30:35;9.18;;;6.10;;
34573;SDS011;20809;49.594;8.734;2022-10-16T19:33:40;9.98;;;6.65;;
34573;SDS011;20809;49.594;8.734;2022-10-16T19:36:41;10.93;;;6.28;;
34573;SDS011;20809;49.594;8.734;2022-10-16T19:39:41;10.20;;;6.25;;
34573;SDS011;20809;49.594;8.734;2022-10-16T19:42:43;8.15;;;5.90;;
34573;SDS011;20809;49.594;8.734;2022-10-16T19:45:46;8.68;;;6.28;;
34573;SDS011;20809;49.594;8.734;2022-10-16T19:48:46;7.95;;;7.00;;
34573;SDS011;20809;49.594;8.734;2022-10-16T19:51:48;12.13;;;7.35;;
34573;SDS011;20809;49.594;8.734;2022-10-16T19:54:53;7.13;;;6.43;;
34573;SDS011;20809;49.594;8.734;2022-10-16T19:57:56;9.02;;;5.70;;
34573;SDS011;20809;49.594;8.734;2022-10-16T20:00:57;7.68;;;5.50;;
34573;SDS011;20809;49.594;8.734;2022-10-16T20:03:58;7.68;;;5.78;;
34573;SDS011;20809;49.594;8.734;2022-10-16T20:06:59;9.07;;;6.43;;
34573;SDS011;20809;49.594;8.734;2022-10-16T20:10:00;9.55;;;6.00;;
34573;SDS011;20809;49.594;8.734;2022-10-16T20:13:00;12.05;;;6.95;;
34573;SDS011;20809;49.594;8.734;2022-10-16T20:16:02;7.85;;;6.18;;
34573;SDS011;20809;49.594;8.734;2022-10-16T20:19:04;9.35;;;6.68;;
34573;SDS011;20809;49.594;8.734;2022-10-16T20:22:05;10.25;;;8.00;;
34573;SDS011;20809;49.594;8.734;2022-10-16T20:25:05;7.50;;;6.28;;
34573;SDS011;20809;49.594;8.734;2022-10-16T20:28:07;12.45;;;5.50;;
34573;SDS011;20809;49.594;8.734;2022-10-16T20:31:12;18.00;;;5.32;;
34573;SDS011;20809;49.594;8.734;2022-10-16T20:34:16;6.30;;;5.43;;
34573;SDS011;20809;49.594;8.734;2022-10-16T20:37:17;8.60;;;5.20;;
34573;SDS011;20809;49.594;8.734;2022-10-16T20:40:18;6.53;;;5.50;;
34573;SDS011;20809;49.594;8.734;2022-10-16T20:43:18;6.25;;;5.13;;
34573;SDS011;20809;49.594;8.734;2022-10-16T20:46:20;5.93;;;5.32;;
34573;SDS011;20809;49.594;8.734;2022-10-16T20:49:22;8.68;;;5.90;;